createdAt,value
2019-05-19T00:02:17.891Z,13.80
2019-05-19T00:04:44.080Z,13.70
2019-05-19T00:07:12.379Z,13.80
2019-05-19T00:09:38.550Z,13.80
2019-05-19T00:12:04.930Z,13.70
2019-05-19T00:14:31.258Z,13.70
2019-05-19T00:16:57.588Z,13.70
2019-05-19T00:19:26.762Z,13.70
2019-05-19T00:21:51.770Z,13.70
2019-05-19T00:24:18.045Z,13.70
2019-05-19T00:26:44.213Z,13.70
2019-05-19T00:29:10.726Z,13.80
2019-05-19T00:31:36.900Z,13.80
2019-05-19T00:34:03.080Z,13.70
2019-05-19T00:36:29.301Z,13.80
2019-05-19T00:38:55.473Z,13.70
2019-05-19T00:41:21.658Z,13.70
2019-05-19T00:43:48.933Z,13.60
2019-05-19T00:46:15.212Z,13.70
2019-05-19T00:48:41.494Z,13.70
2019-05-19T00:51:07.694Z,13.60
2019-05-19T00:53:33.867Z,13.70
2019-05-19T00:56:00.538Z,13.60
2019-05-19T00:58:26.837Z,13.60
2019-05-19T01:00:53.017Z,13.60
2019-05-19T01:03:19.391Z,13.60
2019-05-19T01:05:45.603Z,13.70
2019-05-19T01:08:12.022Z,13.70
2019-05-19T01:10:38.220Z,13.70
2019-05-19T01:13:04.402Z,13.80
2019-05-19T01:15:30.660Z,13.70
2019-05-19T01:17:56.835Z,13.70
2019-05-19T01:20:23.035Z,13.80
2019-05-19T01:22:49.213Z,13.80
2019-05-19T01:25:15.390Z,13.80
2019-05-19T01:27:41.793Z,13.80
2019-05-19T01:30:08.968Z,13.70
2019-05-19T01:32:35.151Z,13.80
2019-05-19T01:35:01.402Z,13.70
2019-05-19T01:37:27.725Z,13.80
2019-05-19T01:39:53.969Z,13.80
2019-05-19T01:42:20.383Z,13.70
2019-05-19T01:44:46.834Z,13.60
2019-05-19T01:47:13.021Z,13.60
2019-05-19T01:49:39.218Z,13.60
2019-05-19T01:52:05.394Z,13.60
2019-05-19T01:54:31.566Z,13.60
2019-05-19T01:56:57.770Z,13.60
2019-05-19T01:59:23.954Z,13.60
2019-05-19T02:01:50.423Z,13.60
2019-05-19T02:04:16.734Z,13.60
2019-05-19T02:06:43.007Z,13.60
2019-05-19T02:09:09.178Z,13.60
2019-05-19T02:11:35.415Z,13.70
2019-05-19T02:14:02.179Z,13.70
2019-05-19T02:16:28.390Z,13.70
2019-05-19T02:18:54.975Z,13.70
2019-05-19T02:21:21.152Z,13.80
2019-05-19T02:23:47.333Z,13.70
2019-05-19T02:26:13.535Z,13.70
2019-05-19T02:28:39.706Z,13.70
2019-05-19T02:31:05.885Z,13.60
2019-05-19T02:33:35.649Z,13.60
2019-05-19T02:36:00.068Z,13.60
2019-05-19T02:38:26.242Z,13.60
2019-05-19T02:40:54.675Z,13.50
2019-05-19T02:43:21.356Z,13.50
2019-05-19T02:45:52.469Z,13.60
2019-05-19T02:48:18.765Z,13.60
2019-05-19T02:50:52.130Z,13.60
2019-05-19T02:53:13.035Z,13.60
2019-05-19T02:55:39.344Z,13.60
2019-05-19T02:58:05.629Z,13.70
2019-05-19T03:00:34.691Z,13.70
2019-05-19T03:03:01.000Z,13.70
2019-05-19T03:05:27.207Z,13.80
2019-05-19T03:07:53.382Z,13.80
2019-05-19T03:10:19.587Z,13.80
2019-05-19T03:12:45.765Z,13.80
2019-05-19T03:15:11.937Z,13.80
2019-05-19T03:17:38.138Z,13.90
2019-05-19T03:20:04.955Z,13.70
2019-05-19T03:22:31.084Z,13.70
2019-05-19T03:24:57.531Z,13.60
2019-05-19T03:27:23.706Z,13.50
2019-05-19T03:29:51.779Z,13.50
2019-05-19T03:32:19.913Z,13.60
2019-05-19T03:34:46.156Z,13.60
2019-05-19T03:37:12.344Z,13.50
2019-05-19T03:39:38.545Z,13.60
2019-05-19T03:42:04.719Z,13.60
2019-05-19T03:44:30.929Z,13.70
2019-05-19T03:46:57.379Z,13.60
2019-05-19T03:49:23.548Z,13.50
2019-05-19T03:51:49.727Z,13.50
2019-05-19T03:54:15.957Z,13.40
2019-05-19T03:56:42.130Z,13.30
2019-05-19T03:59:08.301Z,13.30
2019-05-19T04:01:34.494Z,13.20
2019-05-19T04:04:00.674Z,13.30
2019-05-19T04:06:26.860Z,13.20
2019-05-19T04:08:53.314Z,13.20
2019-05-19T04:11:19.492Z,13.20
2019-05-19T04:13:45.767Z,13.10
2019-05-19T04:16:11.967Z,13.10
2019-05-19T04:18:38.141Z,13.10
2019-05-19T04:21:04.315Z,13.00
2019-05-19T04:23:30.882Z,12.90
2019-05-19T04:25:57.255Z,12.90
2019-05-19T04:28:23.433Z,12.90
2019-05-19T04:30:49.778Z,12.90
2019-05-19T04:33:15.948Z,12.80
2019-05-19T04:35:42.157Z,12.80
2019-05-19T04:38:08.323Z,12.70
2019-05-19T04:40:34.494Z,12.70
2019-05-19T04:43:00.837Z,12.70
2019-05-19T04:45:27.137Z,12.60
2019-05-19T04:47:55.178Z,12.60
2019-05-19T04:50:21.454Z,12.60
2019-05-19T04:52:47.862Z,12.60
2019-05-19T04:55:14.030Z,12.60
2019-05-19T04:57:40.220Z,12.60
2019-05-19T05:00:06.647Z,12.50
2019-05-19T05:02:32.999Z,12.50
2019-05-19T05:04:59.224Z,12.60
2019-05-19T05:07:25.531Z,12.60
2019-05-19T05:09:51.710Z,12.60
2019-05-19T05:12:17.892Z,12.60
2019-05-19T05:14:44.090Z,12.60
2019-05-19T05:17:10.283Z,12.60
2019-05-19T05:19:36.574Z,12.60
2019-05-19T05:22:02.711Z,12.60
2019-05-19T05:24:28.898Z,12.60
2019-05-19T05:26:55.054Z,12.50
2019-05-19T05:29:21.260Z,12.50
2019-05-19T05:31:47.431Z,12.50
2019-05-19T05:34:13.707Z,12.50
2019-05-19T05:36:40.179Z,12.60
2019-05-19T05:39:06.350Z,12.60
2019-05-19T05:41:32.530Z,12.60
2019-05-19T05:43:58.734Z,12.60
2019-05-19T05:46:24.981Z,12.60
2019-05-19T05:48:51.463Z,12.50
2019-05-19T05:51:17.787Z,12.50
2019-05-19T05:53:43.958Z,12.50
2019-05-19T05:56:10.162Z,12.50
2019-05-19T05:58:36.359Z,12.50
2019-05-19T06:01:02.630Z,12.50
2019-05-19T06:03:28.880Z,12.50
2019-05-19T06:05:55.029Z,12.50
2019-05-19T06:08:21.202Z,12.50
2019-05-19T06:10:47.568Z,12.50
2019-05-19T06:13:13.893Z,12.50
2019-05-19T06:15:40.108Z,12.50
2019-05-19T06:18:06.758Z,12.60
2019-05-19T06:20:32.964Z,12.60
2019-05-19T06:22:59.300Z,12.60
2019-05-19T06:25:26.072Z,12.60
2019-05-19T06:27:52.458Z,12.60
2019-05-19T06:30:18.671Z,12.60
2019-05-19T06:32:46.815Z,12.70
2019-05-19T06:35:13.531Z,12.70
2019-05-19T06:37:39.794Z,12.70
2019-05-19T06:40:06.805Z,12.80
2019-05-19T06:42:32.979Z,12.80
2019-05-19T06:44:59.262Z,12.80
2019-05-19T06:47:25.530Z,12.80
2019-05-19T06:49:52.229Z,12.70
2019-05-19T06:52:18.405Z,12.70
2019-05-19T06:54:44.683Z,12.70
2019-05-19T06:57:10.867Z,12.70
2019-05-19T06:59:37.047Z,12.70
2019-05-19T07:02:03.227Z,12.70
2019-05-19T07:04:29.441Z,12.80
2019-05-19T07:06:55.931Z,12.80
2019-05-19T07:09:22.174Z,12.90
2019-05-19T07:11:48.418Z,12.90
2019-05-19T07:14:14.587Z,12.90
2019-05-19T07:16:40.762Z,13.00
2019-05-19T07:19:07.064Z,13.10
2019-05-19T07:21:33.242Z,13.10
2019-05-19T07:23:59.425Z,13.20
2019-05-19T07:26:25.672Z,13.20
2019-05-19T07:28:51.822Z,13.20
2019-05-19T07:31:17.996Z,13.20
2019-05-19T07:33:44.337Z,13.20
2019-05-19T07:36:10.507Z,13.10
2019-05-19T07:38:36.700Z,13.10
2019-05-19T07:41:02.886Z,13.30
2019-05-19T07:43:29.058Z,13.30
2019-05-19T07:45:55.233Z,13.40
2019-05-19T07:48:21.580Z,13.40
2019-05-19T07:50:48.722Z,13.40
2019-05-19T07:53:14.922Z,13.40
2019-05-19T07:55:41.202Z,13.40
2019-05-19T07:58:07.374Z,13.30
2019-05-19T08:00:33.554Z,13.40
2019-05-19T08:02:59.757Z,13.50
2019-05-19T08:05:25.933Z,13.50
2019-05-19T08:07:52.106Z,13.50
2019-05-19T08:10:18.389Z,13.50
2019-05-19T08:12:44.693Z,13.50
2019-05-19T08:15:10.858Z,13.50
2019-05-19T08:17:37.169Z,13.60
2019-05-19T08:20:06.234Z,13.60
2019-05-19T08:22:32.413Z,13.50
2019-05-19T08:24:58.617Z,13.40
2019-05-19T08:27:24.790Z,13.50
2019-05-19T08:29:51.068Z,13.40
2019-05-19T08:32:17.283Z,13.20
2019-05-19T08:34:43.656Z,13.30
2019-05-19T08:37:10.108Z,13.30
2019-05-19T08:39:36.375Z,13.30
2019-05-19T08:42:02.651Z,13.30
2019-05-19T08:44:28.834Z,13.30
2019-05-19T08:46:55.231Z,13.30
2019-05-19T08:49:21.611Z,13.10
2019-05-19T08:51:49.297Z,13.20
2019-05-19T08:54:18.825Z,13.20
2019-05-19T08:56:43.476Z,13.30
2019-05-19T08:59:09.651Z,13.30
2019-05-19T09:01:37.967Z,13.30
2019-05-19T09:04:04.146Z,13.20
2019-05-19T09:06:30.530Z,13.10
2019-05-19T09:08:56.854Z,13.10
2019-05-19T09:11:23.027Z,13.00
2019-05-19T09:13:49.202Z,13.00
2019-05-19T09:16:15.496Z,13.00
2019-05-19T09:18:41.675Z,13.00
2019-05-19T09:21:07.851Z,12.90
2019-05-19T09:23:34.055Z,12.90
2019-05-19T09:26:00.225Z,13.00
2019-05-19T09:28:26.603Z,13.00
2019-05-19T09:30:52.811Z,13.10
2019-05-19T09:33:18.991Z,13.10
2019-05-19T09:35:45.176Z,13.10
2019-05-19T09:38:11.385Z,13.20
2019-05-19T09:40:37.563Z,13.20
2019-05-19T09:43:03.820Z,13.30
2019-05-19T09:45:30.137Z,13.30
2019-05-19T09:47:56.306Z,13.40
2019-05-19T09:50:22.481Z,13.40
2019-05-19T09:52:49.465Z,13.50
2019-05-19T09:55:15.641Z,13.60
2019-05-19T09:57:42.014Z,13.60
2019-05-19T10:00:09.115Z,13.70
2019-05-19T10:02:35.295Z,13.70
2019-05-19T10:05:03.075Z,13.70
2019-05-19T10:07:29.362Z,13.50
2019-05-19T10:09:57.544Z,13.60
2019-05-19T10:12:23.715Z,13.60
2019-05-19T10:14:50.122Z,13.60
2019-05-19T10:17:16.394Z,13.60
2019-05-19T10:19:42.578Z,13.50
2019-05-19T10:22:08.787Z,13.60
2019-05-19T10:24:36.179Z,13.60
2019-05-19T10:27:02.474Z,13.40
2019-05-19T10:29:28.703Z,13.30
2019-05-19T10:31:55.144Z,13.40
2019-05-19T10:34:21.533Z,13.40
2019-05-19T10:36:47.724Z,13.50
2019-05-19T10:39:14.034Z,13.50
2019-05-19T10:41:40.175Z,13.50
2019-05-19T10:44:06.592Z,13.40
2019-05-19T10:46:32.822Z,13.40
2019-05-19T10:48:58.991Z,13.60
2019-05-19T10:51:25.295Z,13.60
2019-05-19T10:53:52.490Z,13.60
2019-05-19T10:56:19.217Z,13.50
2019-05-19T10:58:45.610Z,13.50
2019-05-19T11:01:11.790Z,13.50
2019-05-19T11:03:37.970Z,13.50
2019-05-19T11:06:04.595Z,13.50
2019-05-19T11:08:30.878Z,13.60
2019-05-19T11:10:57.661Z,13.60
2019-05-19T11:13:23.878Z,13.80
2019-05-19T11:15:50.157Z,13.80
2019-05-19T11:18:16.342Z,13.90
2019-05-19T11:20:42.898Z,13.90
2019-05-19T11:23:09.075Z,14.10
2019-05-19T11:25:35.468Z,14.00
2019-05-19T11:28:04.435Z,13.80
2019-05-19T11:30:30.616Z,13.70
2019-05-19T11:32:56.803Z,13.70
2019-05-19T11:35:22.995Z,13.70
2019-05-19T11:37:49.341Z,13.80
2019-05-19T11:40:15.693Z,13.80
2019-05-19T11:42:42.000Z,13.70
2019-05-19T11:45:08.160Z,13.70
2019-05-19T11:47:34.343Z,13.70
2019-05-19T11:50:00.535Z,13.70
2019-05-19T11:52:26.714Z,13.60
2019-05-19T11:54:53.282Z,13.50
2019-05-19T11:57:19.605Z,13.50
2019-05-19T11:59:45.747Z,13.50
2019-05-19T12:02:12.040Z,13.60
2019-05-19T12:04:38.478Z,13.70
2019-05-19T12:07:04.660Z,13.60
2019-05-19T12:09:31.030Z,13.60
2019-05-19T12:11:57.357Z,13.50
2019-05-19T12:14:23.628Z,13.50
2019-05-19T12:16:49.962Z,13.60
2019-05-19T12:19:16.242Z,13.80
2019-05-19T12:21:42.594Z,13.90
2019-05-19T12:24:08.862Z,14.00
2019-05-19T12:26:35.071Z,14.10
2019-05-19T12:29:01.747Z,14.10
2019-05-19T12:31:28.032Z,14.10
2019-05-19T12:33:54.230Z,14.30
2019-05-19T12:36:20.394Z,14.30
2019-05-19T12:38:46.670Z,14.20
2019-05-19T12:41:13.028Z,14.10
2019-05-19T12:43:39.197Z,14.00
2019-05-19T12:46:15.787Z,13.90
2019-05-19T12:48:33.714Z,13.90
2019-05-19T12:50:59.976Z,13.70
2019-05-19T12:53:26.241Z,13.70
2019-05-19T12:55:53.710Z,13.60
2019-05-19T12:58:19.888Z,13.40
2019-05-19T13:00:46.063Z,13.40
2019-05-19T13:03:12.276Z,13.30
2019-05-19T13:05:38.460Z,13.30
2019-05-19T13:08:04.635Z,13.40
2019-05-19T13:10:30.947Z,13.60
2019-05-19T13:12:57.118Z,13.40
2019-05-19T13:15:23.292Z,13.40
2019-05-19T13:17:49.723Z,13.30
2019-05-19T13:20:16.359Z,13.30
2019-05-19T13:22:42.587Z,13.00
2019-05-19T13:25:08.795Z,12.90
2019-05-19T13:27:35.127Z,12.90
2019-05-19T13:30:01.243Z,12.90
2019-05-19T13:32:27.450Z,12.90
2019-05-19T13:34:53.615Z,12.90
2019-05-19T13:37:19.792Z,13.00
2019-05-19T13:39:46.034Z,13.10
2019-05-19T13:42:12.308Z,13.20
2019-05-19T13:44:38.485Z,13.20
2019-05-19T13:47:04.688Z,13.30
2019-05-19T13:49:30.854Z,13.50
2019-05-19T13:51:57.025Z,13.60
2019-05-19T13:54:23.228Z,13.80
2019-05-19T13:56:50.810Z,13.80
2019-05-19T13:59:16.986Z,14.00
2019-05-19T14:01:43.347Z,13.90
2019-05-19T14:04:09.527Z,13.80
2019-05-19T14:06:35.710Z,14.00
2019-05-19T14:09:02.536Z,14.10
2019-05-19T14:11:28.686Z,14.30
2019-05-19T14:13:54.911Z,14.40
2019-05-19T14:16:21.230Z,14.60
2019-05-19T14:18:47.514Z,14.60
2019-05-19T14:21:13.678Z,14.50
2019-05-19T14:23:39.916Z,14.50
2019-05-19T14:26:06.094Z,14.70
2019-05-19T14:28:32.266Z,14.60
2019-05-19T14:30:59.078Z,14.40
2019-05-19T14:33:25.433Z,14.60
2019-05-19T14:35:51.627Z,14.50
2019-05-19T14:38:18.029Z,14.50
2019-05-19T14:40:44.195Z,14.70
2019-05-19T14:43:10.373Z,14.60
2019-05-19T14:45:36.879Z,14.50
2019-05-19T14:48:03.166Z,14.40
2019-05-19T14:50:29.342Z,14.40
2019-05-19T14:52:55.646Z,14.40
2019-05-19T14:55:21.916Z,14.60
2019-05-19T14:57:48.862Z,14.70
2019-05-19T15:00:15.379Z,14.80
2019-05-19T15:02:41.752Z,14.70
2019-05-19T15:05:08.024Z,14.60
2019-05-19T15:07:34.383Z,14.50
2019-05-19T15:10:00.590Z,14.50
2019-05-19T15:12:26.894Z,14.70
2019-05-19T15:14:53.187Z,14.80
2019-05-19T15:17:19.499Z,14.90
2019-05-19T15:19:45.685Z,14.90
2019-05-19T15:22:12.147Z,15.00
2019-05-19T15:24:38.384Z,14.90
2019-05-19T15:27:04.547Z,14.80
2019-05-19T15:29:30.743Z,14.70
2019-05-19T15:31:56.923Z,14.60
2019-05-19T15:34:23.094Z,14.60
2019-05-19T15:36:49.423Z,14.50
2019-05-19T15:39:15.598Z,14.60
2019-05-19T15:41:41.776Z,14.60
2019-05-19T15:44:07.983Z,14.60
2019-05-19T15:46:34.248Z,14.50
2019-05-19T15:49:00.752Z,14.60
2019-05-19T15:51:29.143Z,14.50
2019-05-19T15:53:55.148Z,14.30
2019-05-19T15:56:21.310Z,14.30
2019-05-19T15:58:48.884Z,14.40
2019-05-19T16:01:15.265Z,14.50
2019-05-19T16:03:41.439Z,14.50
2019-05-19T16:06:07.740Z,14.60
2019-05-19T16:08:33.948Z,14.50
2019-05-19T16:11:00.317Z,14.40
2019-05-19T16:13:26.516Z,14.40
2019-05-19T16:15:52.689Z,14.40
2019-05-19T16:18:19.068Z,14.40
2019-05-19T16:20:45.393Z,14.50
2019-05-19T16:23:11.574Z,14.50
2019-05-19T16:25:37.748Z,14.40
2019-05-19T16:28:03.953Z,14.20
2019-05-19T16:30:30.139Z,14.20
2019-05-19T16:32:56.315Z,14.20
2019-05-19T16:35:22.606Z,14.10
2019-05-19T16:37:48.916Z,14.20
2019-05-19T16:40:15.282Z,14.20
2019-05-19T16:42:41.492Z,14.30
2019-05-19T16:45:07.868Z,14.40
2019-05-19T16:47:34.035Z,14.20
2019-05-19T16:50:00.374Z,14.20
2019-05-19T16:52:26.715Z,14.40
2019-05-19T16:54:54.790Z,14.20
2019-05-19T16:57:21.398Z,14.10
2019-05-19T16:59:48.434Z,14.20
2019-05-19T17:02:14.706Z,14.20
2019-05-19T17:04:41.019Z,14.40
2019-05-19T17:07:07.198Z,14.20
2019-05-19T17:09:33.742Z,14.20
2019-05-19T17:12:00.076Z,14.10
2019-05-19T17:14:26.453Z,13.70
2019-05-19T17:16:52.618Z,13.50
2019-05-19T17:19:18.826Z,13.60
2019-05-19T17:21:45.088Z,13.60
2019-05-19T17:24:11.314Z,13.50
2019-05-19T17:26:37.594Z,13.40
2019-05-19T17:29:03.761Z,13.50
2019-05-19T17:31:30.143Z,13.50
2019-05-19T17:33:56.351Z,13.40
2019-05-19T17:36:22.531Z,13.40
2019-05-19T17:38:48.785Z,13.40
2019-05-19T17:41:15.222Z,13.40
2019-05-19T17:43:41.387Z,13.60
2019-05-19T17:46:07.672Z,13.40
2019-05-19T17:48:34.125Z,13.30
2019-05-19T17:51:00.299Z,13.40
2019-05-19T17:53:26.496Z,13.50
2019-05-19T17:55:53.000Z,13.40
2019-05-19T17:58:19.176Z,13.30
2019-05-19T18:00:45.963Z,13.20
2019-05-19T18:03:12.411Z,13.20
2019-05-19T18:05:38.782Z,13.20
2019-05-19T18:08:05.169Z,13.10
2019-05-19T18:10:31.368Z,13.10
2019-05-19T18:12:57.538Z,13.20
2019-05-19T18:15:24.021Z,13.10
2019-05-19T18:17:50.230Z,13.00
2019-05-19T18:20:23.855Z,13.00
2019-05-19T18:22:44.392Z,12.90
2019-05-19T18:25:10.587Z,12.90
2019-05-19T18:27:36.762Z,12.90
2019-05-19T18:30:03.943Z,12.90
2019-05-19T18:32:30.155Z,12.90
2019-05-19T18:34:56.430Z,13.00
2019-05-19T18:37:22.669Z,13.00
2019-05-19T18:39:48.810Z,12.80
2019-05-19T18:42:14.974Z,12.60
2019-05-19T18:44:41.350Z,12.70
2019-05-19T18:47:07.562Z,12.60
2019-05-19T18:49:33.723Z,12.70
2019-05-19T18:51:59.890Z,12.70
2019-05-19T18:54:26.766Z,12.80
2019-05-19T18:56:52.996Z,12.80
2019-05-19T18:59:19.157Z,12.80
2019-05-19T19:01:45.970Z,12.80
2019-05-19T19:04:12.170Z,12.60
2019-05-19T19:06:38.365Z,12.60
2019-05-19T19:09:05.161Z,12.60
2019-05-19T19:11:31.334Z,12.50
2019-05-19T19:13:57.614Z,12.40
2019-05-19T19:16:23.810Z,12.40
2019-05-19T19:18:49.994Z,12.40
2019-05-19T19:21:16.171Z,12.30
2019-05-19T19:23:42.369Z,12.30
2019-05-19T19:26:08.842Z,12.10
2019-05-19T19:28:35.015Z,12.20
2019-05-19T19:31:01.522Z,12.30
2019-05-19T19:33:27.703Z,12.30
2019-05-19T19:35:53.883Z,12.30
2019-05-19T19:38:20.218Z,12.20
2019-05-19T19:40:46.400Z,12.20
2019-05-19T19:43:12.872Z,12.20
2019-05-19T19:45:39.078Z,12.20
2019-05-19T19:48:05.349Z,12.20
2019-05-19T19:50:32.228Z,12.20
2019-05-19T19:52:58.621Z,12.10
2019-05-19T19:55:24.991Z,12.20
2019-05-19T19:57:51.163Z,12.20
2019-05-19T20:00:21.383Z,12.10
2019-05-19T20:02:49.278Z,12.00
2019-05-19T20:05:15.450Z,12.00
2019-05-19T20:07:41.682Z,12.00
2019-05-19T20:10:07.964Z,12.00
2019-05-19T20:12:34.139Z,12.00
2019-05-19T20:15:00.546Z,12.00
2019-05-19T20:17:26.720Z,12.00
2019-05-19T20:19:52.906Z,12.00
2019-05-19T20:22:19.114Z,12.00
2019-05-19T20:24:45.293Z,12.00
2019-05-19T20:27:11.467Z,11.80
2019-05-19T20:29:37.770Z,11.80
2019-05-19T20:32:03.951Z,11.90
2019-05-19T20:34:30.120Z,11.90
2019-05-19T20:36:56.354Z,11.90
2019-05-19T20:39:22.534Z,11.90
2019-05-19T20:41:48.743Z,11.90
2019-05-19T20:44:15.336Z,11.80
2019-05-19T20:46:41.512Z,11.70
2019-05-19T20:49:07.701Z,11.70
2019-05-19T20:51:34.161Z,11.70
2019-05-19T20:54:00.415Z,11.60
2019-05-19T20:56:26.579Z,11.50
2019-05-19T20:58:52.778Z,11.60
2019-05-19T21:01:18.973Z,11.60
2019-05-19T21:03:46.699Z,11.70
2019-05-19T21:06:12.900Z,11.70
2019-05-19T21:08:39.071Z,11.60
2019-05-19T21:11:05.243Z,11.70
2019-05-19T21:13:31.508Z,11.70
2019-05-19T21:15:57.886Z,11.60
2019-05-19T21:18:24.065Z,11.60
2019-05-19T21:20:50.259Z,11.70
2019-05-19T21:23:16.438Z,11.70
2019-05-19T21:25:42.713Z,11.70
2019-05-19T21:28:08.919Z,11.70
2019-05-19T21:30:35.203Z,11.70
2019-05-19T21:33:01.375Z,11.60
2019-05-19T21:35:27.946Z,11.70
2019-05-19T21:37:54.230Z,11.70
2019-05-19T21:40:20.610Z,11.70
2019-05-19T21:42:47.063Z,11.60
2019-05-19T21:45:13.227Z,11.60
2019-05-19T21:47:39.492Z,11.50
2019-05-19T21:50:06.311Z,11.60
2019-05-19T21:52:32.498Z,11.70
2019-05-19T21:54:58.698Z,11.70
2019-05-19T21:57:24.893Z,11.70
2019-05-19T21:59:51.079Z,11.70
2019-05-19T22:02:17.360Z,11.60
2019-05-19T22:04:43.909Z,11.70
2019-05-19T22:07:11.919Z,11.70
2019-05-19T22:09:38.309Z,11.70
2019-05-19T22:12:04.718Z,11.70
2019-05-19T22:14:30.890Z,11.80
2019-05-19T22:16:57.162Z,11.70
2019-05-19T22:19:23.601Z,11.60
2019-05-19T22:21:49.755Z,11.50
2019-05-19T22:24:16.123Z,11.50
2019-05-19T22:26:42.538Z,11.50
2019-05-19T22:29:08.705Z,11.60
2019-05-19T22:31:36.813Z,11.60
2019-05-19T22:34:03.149Z,11.60
2019-05-19T22:36:29.530Z,11.60
2019-05-19T22:38:55.726Z,11.60
2019-05-19T22:41:21.926Z,11.60
2019-05-19T22:43:48.103Z,11.50
2019-05-19T22:46:14.277Z,11.50
2019-05-19T22:48:40.472Z,11.50
2019-05-19T22:51:06.648Z,11.50
2019-05-19T22:53:32.977Z,11.60
2019-05-19T22:55:59.309Z,11.50
2019-05-19T22:58:25.486Z,11.50
2019-05-19T23:00:51.760Z,11.50
2019-05-19T23:03:17.966Z,11.50
2019-05-19T23:05:45.767Z,11.50
2019-05-19T23:08:11.946Z,11.40
2019-05-19T23:10:38.358Z,11.40
2019-05-19T23:13:04.530Z,11.40
2019-05-19T23:15:30.706Z,11.50
2019-05-19T23:17:56.994Z,11.50
2019-05-19T23:20:23.290Z,11.40
2019-05-19T23:22:49.790Z,11.40
2019-05-19T23:25:16.207Z,11.40
2019-05-19T23:27:42.579Z,11.40
2019-05-19T23:30:08.966Z,11.30
2019-05-19T23:32:35.251Z,11.30
2019-05-19T23:35:03.138Z,11.40
2019-05-19T23:37:29.413Z,11.40
2019-05-19T23:39:55.670Z,11.40
2019-05-19T23:42:22.050Z,11.30
2019-05-19T23:44:48.218Z,11.30
2019-05-19T23:47:14.427Z,11.30
2019-05-19T23:49:40.824Z,11.30
2019-05-19T23:52:06.975Z,11.30
2019-05-19T23:54:33.181Z,11.40
2019-05-19T23:56:59.357Z,11.40
2019-05-19T23:59:25.529Z,11.40
